Historique des mesures à Cassis (13260), France
Quotidien Résumé Fevrier 14, 2018 Unités:  US    Métrique   Métrique/US
« Précédent (Jour)
Suivant (Jour) »
Quotidien Hebdomadaire Mensuel Annuel Période au choix
  Maximum: Minimum: Moyenne:
Température: 32 °F 40.8 °F 45 °F
Point de rosée: 32 °F 23 °F 29.5 °F
Humidité: Humidity % 47 % 51 %
Vitesse du vent: WindSpeedKMH mph 0.0 mph 8.4 mph
Rafales: WindSpeedGustKMH mph - -
Vent:- - WSW
Pression: 0 in 29.8 in -
Précipitations: 0 in    
Historical Graphs
 
 
Mesures pour : Fevrier 14, 2018
Heure Temperature Point de rosée Pression Vent Vitesse du vent Rafales Humidité Pluie (par heure) Conditions
32 °F 32 °F 0 in Calm     Humidity % 0 in SoftwareType W/m2
00:12 40.8 °F 23 °F 29.8 in Calm     49 % 0 in open2300-1.11 W/m2
01:12 42.4 °F 25.2 °F 29.8 in Calm     50 % 0 in open2300-1.11 W/m2
02:12 41.7 °F 25.9 °F 29.8 in NW 3.2 mph 3.2 mph 53 % 0 in open2300-1.11 W/m2
03:12 42.6 °F 29.1 °F 29.8 in NW 6.8 mph 8.7 mph 59 % 0 in open2300-1.11 W/m2
04:12 42.1 °F 30.4 °F 29.8 in NW 14.3 mph 14.3 mph 63 % 0 in open2300-1.11 W/m2
05:12 41.7 °F 30.7 °F 29.8 in WNW 25.9 mph 25.9 mph 65 % 0 in open2300-1.11 W/m2
06:12 42.4 °F 29.8 °F 29.8 in NNW 8.2 mph 25.6 mph 61 % 0 in open2300-1.11 W/m2
07:12 42.1 °F 28.8 °F 29.8 in North 7.9 mph 20.6 mph 59 % 0 in open2300-1.11 W/m2
08:12 42.6 °F 27.5 °F 29.8 in NNW 23.0 mph 30.6 mph 55 % 0 in open2300-1.11 W/m2
09:12 43.9 °F 27.9 °F 29.8 in NW 13.0 mph 13.0 mph 53 % 0 in open2300-1.11 W/m2
11:12 46.9 °F 29.7 °F 29.9 in West 23.0 mph 23.0 mph 51 % 0 in open2300-1.11 W/m2
12:12 48.4 °F 30 °F 29.9 in NNE 14.8 mph 15.4 mph 49 % 0 in open2300-1.11 W/m2
13:12 49.6 °F 31.8 °F 29.9 in NW 17.2 mph 17.2 mph 50 % 0 in open2300-1.11 W/m2
14:12 50.2 °F 31.3 °F 29.9 in North 3.5 mph 7.9 mph 48 % 0 in open2300-1.11 W/m2
15:12 51.4 °F 31.8 °F 29.9 in Calm   14.8 mph 47 % 0 in open2300-1.11 W/m2
16:12 50.4 °F 31.5 °F 29.9 in WNW 19.1 mph 19.8 mph 48 % 0 in open2300-1.11 W/m2
17:12 49.6 °F 31.3 °F 29.9 in WNW 10.1 mph 12.2 mph 49 % 0 in open2300-1.11 W/m2
18:12 48.4 °F 30.9 °F 29.9 in Calm     51 % 0 in open2300-1.11 W/m2
19:12 47.1 °F 29.8 °F 29.9 in Calm     51 % 0 in open2300-1.11 W/m2
20:12 46.8 °F 30 °F 29.9 in West 5.8 mph 5.8 mph 52 % 0 in open2300-1.11 W/m2
21:12 46.2 °F 30.9 °F 29.9 in Calm   2.1 mph 55 % 0 in open2300-1.11 W/m2
22:12 45.5 °F 30.2 °F 30 in NW 2.6 mph 4.7 mph 55 % 0 in open2300-1.11 W/m2
23:12 45 °F 29.7 °F 30 in NW 2.9 mph 5.5 mph 55 % 0 in open2300-1.11 W/m2
Observations météo à CASSIS
WU-History script by Weather Underground - 1 mb